sensor_id;sensor_type;location;lat;lon;timestamp;temperature;humidity
26051;DHT22;13825;53.496;10.020;2023-03-01T00:02:28;-2.90;99.90
26051;DHT22;13825;53.496;10.020;2023-03-01T00:05:01;-3.00;99.90
26051;DHT22;13825;53.496;10.020;2023-03-01T00:07:29;-2.90;99.90
26051;DHT22;13825;53.496;10.020;2023-03-01T00:09:56;-3.00;99.90
26051;DHT22;13825;53.496;10.020;2023-03-01T00:12:23;-3.00;99.90
26051;DHT22;13825;53.496;10.020;2023-03-01T00:14:50;-3.10;99.90
26051;DHT22;13825;53.496;10.020;2023-03-01T00:17:17;-3.10;99.90
26051;DHT22;13825;53.496;10.020;2023-03-01T00:19:53;-3.10;99.90
26051;DHT22;13825;53.496;10.020;2023-03-01T00:22:20;-3.10;99.90
26051;DHT22;13825;53.496;10.020;2023-03-01T00:24:50;-3.10;99.90
26051;DHT22;13825;53.496;10.020;2023-03-01T00:27:21;-3.00;1.00
26051;DHT22;13825;53.496;10.020;2023-03-01T00:29:48;-3.00;1.00
26051;DHT22;13825;53.496;10.020;2023-03-01T00:32:15;-3.00;1.00
26051;DHT22;13825;53.496;10.020;2023-03-01T00:34:50;-3.10;1.00
26051;DHT22;13825;53.496;10.020;2023-03-01T00:37:20;-3.10;1.00
26051;DHT22;13825;53.496;10.020;2023-03-01T00:39:54;-3.00;1.00
26051;DHT22;13825;53.496;10.020;2023-03-01T00:42:21;-3.20;1.00
26051;DHT22;13825;53.496;10.020;2023-03-01T00:44:48;-3.20;1.00
26051;DHT22;13825;53.496;10.020;2023-03-01T00:47:15;-3.20;1.00
26051;DHT22;13825;53.496;10.020;2023-03-01T00:49:42;-3.20;1.00
26051;DHT22;13825;53.496;10.020;2023-03-01T00:52:09;-3.20;1.00
26051;DHT22;13825;53.496;10.020;2023-03-01T00:54:36;-3.20;1.00
26051;DHT22;13825;53.496;10.020;2023-03-01T00:57:04;-3.30;1.00
26051;DHT22;13825;53.496;10.020;2023-03-01T00:59:31;-3.40;1.00
26051;DHT22;13825;53.496;10.020;2023-03-01T01:01:58;-3.20;1.00
26051;DHT22;13825;53.496;10.020;2023-03-01T01:04:25;-3.20;1.00
26051;DHT22;13825;53.496;10.020;2023-03-01T01:06:52;-3.30;19.60
26051;DHT22;13825;53.496;10.020;2023-03-01T01:09:19;-3.30;11.20
26051;DHT22;13825;53.496;10.020;2023-03-01T01:11:49;-3.30;1.00
26051;DHT22;13825;53.496;10.020;2023-03-01T01:14:18;-3.20;1.00
26051;DHT22;13825;53.496;10.020;2023-03-01T01:16:48;-3.30;1.00
26051;DHT22;13825;53.496;10.020;2023-03-01T01:19:20;-3.10;1.00
26051;DHT22;13825;53.496;10.020;2023-03-01T01:21:52;-3.20;1.00
26051;DHT22;13825;53.496;10.020;2023-03-01T01:24:19;-3.30;1.00
26051;DHT22;13825;53.496;10.020;2023-03-01T01:26:48;-3.40;1.00
26051;DHT22;13825;53.496;10.020;2023-03-01T01:29:20;-3.40;1.00
26051;DHT22;13825;53.496;10.020;2023-03-01T01:31:47;-3.40;38.30
26051;DHT22;13825;53.496;10.020;2023-03-01T01:34:18;-3.50;99.90
26051;DHT22;13825;53.496;10.020;2023-03-01T01:36:50;-3.40;99.90
26051;DHT22;13825;53.496;10.020;2023-03-01T01:39:31;-3.40;99.90
26051;DHT22;13825;53.496;10.020;2023-03-01T01:42:21;-3.40;99.90
26051;DHT22;13825;53.496;10.020;2023-03-01T01:47:58;-3.40;99.90
26051;DHT22;13825;53.496;10.020;2023-03-01T01:50:35;-3.40;99.90
26051;DHT22;13825;53.496;10.020;2023-03-01T01:53:09;-3.50;99.90
26051;DHT22;13825;53.496;10.020;2023-03-01T01:55:41;-3.40;99.90
26051;DHT22;13825;53.496;10.020;2023-03-01T01:58:11;-3.40;99.90
26051;DHT22;13825;53.496;10.020;2023-03-01T02:00:39;-3.40;1.00
26051;DHT22;13825;53.496;10.020;2023-03-01T02:03:10;-3.40;1.00
26051;DHT22;13825;53.496;10.020;2023-03-01T02:05:42;-3.30;1.00
26051;DHT22;13825;53.496;10.020;2023-03-01T02:08:13;-3.30;1.00
26051;DHT22;13825;53.496;10.020;2023-03-01T02:10:49;-3.30;1.00
26051;DHT22;13825;53.496;10.020;2023-03-01T02:13:16;-3.30;1.00
26051;DHT22;13825;53.496;10.020;2023-03-01T02:15:48;-3.10;1.00
26051;DHT22;13825;53.496;10.020;2023-03-01T02:18:21;-3.10;1.00
26051;DHT22;13825;53.496;10.020;2023-03-01T02:21:04;-3.10;1.00
26051;DHT22;13825;53.496;10.020;2023-03-01T02:23:33;-3.10;1.00
26051;DHT22;13825;53.496;10.020;2023-03-01T02:26:05;-3.00;1.00
26051;DHT22;13825;53.496;10.020;2023-03-01T02:28:40;-2.90;1.00
26051;DHT22;13825;53.496;10.020;2023-03-01T02:31:10;-3.00;1.00
26051;DHT22;13825;53.496;10.020;2023-03-01T02:33:58;-2.90;1.00
26051;DHT22;13825;53.496;10.020;2023-03-01T02:36:30;-2.90;99.90
26051;DHT22;13825;53.496;10.020;2023-03-01T02:39:15;-2.80;1.00
26051;DHT22;13825;53.496;10.020;2023-03-01T02:41:52;-2.80;1.00
26051;DHT22;13825;53.496;10.020;2023-03-01T02:44:26;-2.80;1.00
26051;DHT22;13825;53.496;10.020;2023-03-01T02:46:57;-2.80;1.00
26051;DHT22;13825;53.496;10.020;2023-03-01T02:49:34;-2.80;1.00
26051;DHT22;13825;53.496;10.020;2023-03-01T02:55:11;-2.90;37.20
26051;DHT22;13825;53.496;10.020;2023-03-01T02:57:41;-2.90;1.00
26051;DHT22;13825;53.496;10.020;2023-03-01T03:00:15;-3.00;1.00
26051;DHT22;13825;53.496;10.020;2023-03-01T03:02:45;-3.00;4.20
26051;DHT22;13825;53.496;10.020;2023-03-01T03:05:15;-3.10;18.70
26051;DHT22;13825;53.496;10.020;2023-03-01T03:07:45;-3.10;99.90
26051;DHT22;13825;53.496;10.020;2023-03-01T03:10:13;-3.10;99.90
26051;DHT22;13825;53.496;10.020;2023-03-01T03:12:49;-3.20;99.90
26051;DHT22;13825;53.496;10.020;2023-03-01T03:15:18;-3.10;99.90
26051;DHT22;13825;53.496;10.020;2023-03-01T03:17:46;-3.20;28.50
26051;DHT22;13825;53.496;10.020;2023-03-01T03:20:15;-3.20;1.00
26051;DHT22;13825;53.496;10.020;2023-03-01T03:22:45;-3.20;27.50
26051;DHT22;13825;53.496;10.020;2023-03-01T03:25:12;-3.20;1.00
26051;DHT22;13825;53.496;10.020;2023-03-01T03:27:40;-3.20;1.00
26051;DHT22;13825;53.496;10.020;2023-03-01T03:30:10;-3.20;1.00
26051;DHT22;13825;53.496;10.020;2023-03-01T03:32:41;-3.20;1.00
26051;DHT22;13825;53.496;10.020;2023-03-01T03:35:19;-3.10;1.00
26051;DHT22;13825;53.496;10.020;2023-03-01T03:37:50;-3.10;99.90
26051;DHT22;13825;53.496;10.020;2023-03-01T03:40:37;-3.00;99.90
26051;DHT22;13825;53.496;10.020;2023-03-01T03:43:05;-3.00;99.90
26051;DHT22;13825;53.496;10.020;2023-03-01T03:45:32;-2.90;99.90
26051;DHT22;13825;53.496;10.020;2023-03-01T03:48:02;-2.70;99.90
26051;DHT22;13825;53.496;10.020;2023-03-01T03:50:37;-2.80;99.90
26051;DHT22;13825;53.496;10.020;2023-03-01T03:53:09;-2.70;99.90
26051;DHT22;13825;53.496;10.020;2023-03-01T03:55:37;-2.70;99.90
26051;DHT22;13825;53.496;10.020;2023-03-01T03:58:13;-2.50;99.90
26051;DHT22;13825;53.496;10.020;2023-03-01T04:00:41;-2.50;99.90
26051;DHT22;13825;53.496;10.020;2023-03-01T04:03:13;-2.50;1.00
26051;DHT22;13825;53.496;10.020;2023-03-01T04:05:42;-2.30;99.90
26051;DHT22;13825;53.496;10.020;2023-03-01T04:08:09;-2.30;99.90
26051;DHT22;13825;53.496;10.020;2023-03-01T04:10:41;-2.20;1.00
26051;DHT22;13825;53.496;10.020;2023-03-01T04:13:11;-2.10;99.90
26051;DHT22;13825;53.496;10.020;2023-03-01T04:15:41;-2.10;99.90
26051;DHT22;13825;53.496;10.020;2023-03-01T04:18:13;-1.80;99.90
26051;DHT22;13825;53.496;10.020;2023-03-01T04:20:40;-1.90;99.90
26051;DHT22;13825;53.496;10.020;2023-03-01T04:23:12;-1.70;99.90
26051;DHT22;13825;53.496;10.020;2023-03-01T04:25:45;-1.80;99.90
26051;DHT22;13825;53.496;10.020;2023-03-01T04:28:38;-1.90;99.90
26051;DHT22;13825;53.496;10.020;2023-03-01T04:31:07;-1.80;99.90
26051;DHT22;13825;53.496;10.020;2023-03-01T04:33:39;-1.80;99.90
26051;DHT22;13825;53.496;10.020;2023-03-01T04:36:08;-1.70;9.30
26051;DHT22;13825;53.496;10.020;2023-03-01T04:38:36;-1.70;99.90
26051;DHT22;13825;53.496;10.020;2023-03-01T04:41:04;-1.60;99.90
26051;DHT22;13825;53.496;10.020;2023-03-01T04:43:31;-1.50;99.90
26051;DHT22;13825;53.496;10.020;2023-03-01T04:46:05;-1.60;72.30
26051;DHT22;13825;53.496;10.020;2023-03-01T04:48:34;-1.50;99.90
26051;DHT22;13825;53.496;10.020;2023-03-01T04:51:01;-1.50;99.90
26051;DHT22;13825;53.496;10.020;2023-03-01T04:53:29;-1.40;99.90
26051;DHT22;13825;53.496;10.020;2023-03-01T04:55:56;-1.40;1.00
26051;DHT22;13825;53.496;10.020;2023-03-01T04:58:27;-1.40;1.00
26051;DHT22;13825;53.496;10.020;2023-03-01T05:00:54;-1.40;99.90
26051;DHT22;13825;53.496;10.020;2023-03-01T05:03:23;-1.30;99.90
26051;DHT22;13825;53.496;10.020;2023-03-01T05:05:51;-1.30;1.00
26051;DHT22;13825;53.496;10.020;2023-03-01T05:08:19;-1.30;55.20
26051;DHT22;13825;53.496;10.020;2023-03-01T05:10:49;-1.30;1.00
26051;DHT22;13825;53.496;10.020;2023-03-01T05:13:16;-1.20;1.00
26051;DHT22;13825;53.496;10.020;2023-03-01T05:15:47;-1.20;6.10
26051;DHT22;13825;53.496;10.020;2023-03-01T05:18:15;-1.20;99.90
26051;DHT22;13825;53.496;10.020;2023-03-01T05:20:43;-1.20;99.90
26051;DHT22;13825;53.496;10.020;2023-03-01T05:23:11;-1.10;99.90
26051;DHT22;13825;53.496;10.020;2023-03-01T05:25:38;-1.10;1.00
26051;DHT22;13825;53.496;10.020;2023-03-01T05:28:09;-1.00;99.90
26051;DHT22;13825;53.496;10.020;2023-03-01T05:30:37;-1.10;99.90
26051;DHT22;13825;53.496;10.020;2023-03-01T05:33:08;-1.00;99.90
26051;DHT22;13825;53.496;10.020;2023-03-01T05:35:39;-1.00;99.90
26051;DHT22;13825;53.496;10.020;2023-03-01T05:38:09;-0.90;99.90
26051;DHT22;13825;53.496;10.020;2023-03-01T05:40:39;-1.00;11.00
26051;DHT22;13825;53.496;10.020;2023-03-01T05:43:06;-1.00;40.90
26051;DHT22;13825;53.496;10.020;2023-03-01T05:45:36;-0.90;84.10
26051;DHT22;13825;53.496;10.020;2023-03-01T05:48:03;-0.90;99.90
26051;DHT22;13825;53.496;10.020;2023-03-01T05:50:33;-0.90;99.90
26051;DHT22;13825;53.496;10.020;2023-03-01T05:53:02;-0.90;1.00
26051;DHT22;13825;53.496;10.020;2023-03-01T05:55:32;-0.80;11.00
26051;DHT22;13825;53.496;10.020;2023-03-01T05:58:00;-0.90;1.00
26051;DHT22;13825;53.496;10.020;2023-03-01T06:00:29;-0.80;99.90
26051;DHT22;13825;53.496;10.020;2023-03-01T06:02:57;-0.80;99.90
26051;DHT22;13825;53.496;10.020;2023-03-01T06:05:25;-0.80;99.90
26051;DHT22;13825;53.496;10.020;2023-03-01T06:07:52;-0.70;99.90
26051;DHT22;13825;53.496;10.020;2023-03-01T06:10:21;-0.70;99.90
26051;DHT22;13825;53.496;10.020;2023-03-01T06:12:49;-0.70;1.00
26051;DHT22;13825;53.496;10.020;2023-03-01T06:15:16;-0.70;1.00
26051;DHT22;13825;53.496;10.020;2023-03-01T06:17:45;-0.70;99.90
26051;DHT22;13825;53.496;10.020;2023-03-01T06:20:14;-0.60;99.90
26051;DHT22;13825;53.496;10.020;2023-03-01T06:22:41;-0.60;99.90
26051;DHT22;13825;53.496;10.020;2023-03-01T06:25:10;-0.50;1.00
26051;DHT22;13825;53.496;10.020;2023-03-01T06:27:38;-0.50;99.90
26051;DHT22;13825;53.496;10.020;2023-03-01T06:30:08;-0.50;1.00
26051;DHT22;13825;53.496;10.020;2023-03-01T06:32:35;-0.40;99.90
26051;DHT22;13825;53.496;10.020;2023-03-01T06:35:03;-0.40;99.90
26051;DHT22;13825;53.496;10.020;2023-03-01T06:37:32;-0.40;99.90
26051;DHT22;13825;53.496;10.020;2023-03-01T06:40:00;-0.30;99.90
26051;DHT22;13825;53.496;10.020;2023-03-01T06:42:32;-0.20;99.90
26051;DHT22;13825;53.496;10.020;2023-03-01T06:44:59;-0.20;99.90
26051;DHT22;13825;53.496;10.020;2023-03-01T06:47:28;-0.20;99.90
26051;DHT22;13825;53.496;10.020;2023-03-01T06:49:54;-0.20;1.00
26051;DHT22;13825;53.496;10.020;2023-03-01T06:52:21;-0.10;99.90
26051;DHT22;13825;53.496;10.020;2023-03-01T06:54:48;-0.10;99.90
26051;DHT22;13825;53.496;10.020;2023-03-01T06:57:15;-0.10;99.90
26051;DHT22;13825;53.496;10.020;2023-03-01T06:59:52;0.10;99.90
26051;DHT22;13825;53.496;10.020;2023-03-01T07:02:19;0.10;99.90
26051;DHT22;13825;53.496;10.020;2023-03-01T07:04:48;0.10;93.20
26051;DHT22;13825;53.496;10.020;2023-03-01T07:07:16;0.10;99.90
26051;DHT22;13825;53.496;10.020;2023-03-01T07:09:43;0.10;99.90
26051;DHT22;13825;53.496;10.020;2023-03-01T07:12:10;0.20;99.90
26051;DHT22;13825;53.496;10.020;2023-03-01T07:14:37;0.20;99.90
26051;DHT22;13825;53.496;10.020;2023-03-01T07:17:06;0.30;99.90
26051;DHT22;13825;53.496;10.020;2023-03-01T07:19:33;0.40;99.90
26051;DHT22;13825;53.496;10.020;2023-03-01T07:22:03;0.50;1.00
26051;DHT22;13825;53.496;10.020;2023-03-01T07:24:38;0.50;1.00
26051;DHT22;13825;53.496;10.020;2023-03-01T07:27:05;0.60;99.90
26051;DHT22;13825;53.496;10.020;2023-03-01T07:29:32;0.70;99.90
26051;DHT22;13825;53.496;10.020;2023-03-01T07:32:01;0.70;1.00
26051;DHT22;13825;53.496;10.020;2023-03-01T07:34:29;0.90;99.90
26051;DHT22;13825;53.496;10.020;2023-03-01T07:36:56;1.00;1.00
26051;DHT22;13825;53.496;10.020;2023-03-01T07:39:24;1.00;1.00
26051;DHT22;13825;53.496;10.020;2023-03-01T07:41:51;1.10;99.90
26051;DHT22;13825;53.496;10.020;2023-03-01T07:44:18;1.20;99.90
26051;DHT22;13825;53.496;10.020;2023-03-01T07:46:45;1.30;99.90
26051;DHT22;13825;53.496;10.020;2023-03-01T07:49:12;1.40;99.90
26051;DHT22;13825;53.496;10.020;2023-03-01T07:51:39;1.40;99.90
26051;DHT22;13825;53.496;10.020;2023-03-01T07:54:07;1.50;99.90
26051;DHT22;13825;53.496;10.020;2023-03-01T07:56:35;1.60;99.90
26051;DHT22;13825;53.496;10.020;2023-03-01T07:59:02;1.70;99.90
26051;DHT22;13825;53.496;10.020;2023-03-01T08:01:30;1.80;99.90
26051;DHT22;13825;53.496;10.020;2023-03-01T08:03:56;2.00;99.90
26051;DHT22;13825;53.496;10.020;2023-03-01T08:06:23;2.00;99.90
26051;DHT22;13825;53.496;10.020;2023-03-01T08:08:50;2.00;99.90
26051;DHT22;13825;53.496;10.020;2023-03-01T08:11:17;2.10;99.90
26051;DHT22;13825;53.496;10.020;2023-03-01T08:13:47;2.30;99.90
26051;DHT22;13825;53.496;10.020;2023-03-01T08:16:15;2.40;99.90
26051;DHT22;13825;53.496;10.020;2023-03-01T08:18:43;2.40;99.90
26051;DHT22;13825;53.496;10.020;2023-03-01T08:21:14;2.40;99.90
26051;DHT22;13825;53.496;10.020;2023-03-01T08:23:42;2.40;99.90
26051;DHT22;13825;53.496;10.020;2023-03-01T08:26:10;2.40;98.90
26051;DHT22;13825;53.496;10.020;2023-03-01T08:28:38;2.40;99.20
26051;DHT22;13825;53.496;10.020;2023-03-01T08:31:16;2.50;96.20
26051;DHT22;13825;53.496;10.020;2023-03-01T08:33:43;2.60;91.20
26051;DHT22;13825;53.496;10.020;2023-03-01T08:36:16;2.80;59.30
26051;DHT22;13825;53.496;10.020;2023-03-01T08:38:43;2.80;42.20
26051;DHT22;13825;53.496;10.020;2023-03-01T08:41:11;2.70;14.00
26051;DHT22;13825;53.496;10.020;2023-03-01T08:43:38;2.70;1.00
26051;DHT22;13825;53.496;10.020;2023-03-01T08:46:06;2.70;1.00
26051;DHT22;13825;53.496;10.020;2023-03-01T08:48:34;2.70;1.00
26051;DHT22;13825;53.496;10.020;2023-03-01T08:51:08;2.90;1.00
26051;DHT22;13825;53.496;10.020;2023-03-01T08:53:35;2.90;1.00
26051;DHT22;13825;53.496;10.020;2023-03-01T08:56:02;3.00;1.00
26051;DHT22;13825;53.496;10.020;2023-03-01T08:58:30;3.20;1.00
26051;DHT22;13825;53.496;10.020;2023-03-01T09:00:57;3.20;1.00
26051;DHT22;13825;53.496;10.020;2023-03-01T09:03:25;3.30;1.00
26051;DHT22;13825;53.496;10.020;2023-03-01T09:05:59;3.30;1.00
26051;DHT22;13825;53.496;10.020;2023-03-01T09:08:27;3.50;1.00
26051;DHT22;13825;53.496;10.020;2023-03-01T09:10:54;3.50;1.00
26051;DHT22;13825;53.496;10.020;2023-03-01T09:13:21;3.60;1.00
26051;DHT22;13825;53.496;10.020;2023-03-01T09:15:50;3.70;1.00
26051;DHT22;13825;53.496;10.020;2023-03-01T09:18:18;3.80;1.00
26051;DHT22;13825;53.496;10.020;2023-03-01T09:20:45;3.80;1.00
26051;DHT22;13825;53.496;10.020;2023-03-01T09:23:14;3.90;1.00
26051;DHT22;13825;53.496;10.020;2023-03-01T09:25:41;4.00;1.00
26051;DHT22;13825;53.496;10.020;2023-03-01T09:28:08;4.00;1.00
26051;DHT22;13825;53.496;10.020;2023-03-01T09:30:36;4.10;1.00
26051;DHT22;13825;53.496;10.020;2023-03-01T09:33:03;4.20;1.00
26051;DHT22;13825;53.496;10.020;2023-03-01T09:35:30;4.40;1.00
26051;DHT22;13825;53.496;10.020;2023-03-01T09:37:57;4.70;1.00
26051;DHT22;13825;53.496;10.020;2023-03-01T09:40:27;4.80;1.00
26051;DHT22;13825;53.496;10.020;2023-03-01T09:42:59;5.10;1.00
26051;DHT22;13825;53.496;10.020;2023-03-01T09:45:34;5.00;1.00
26051;DHT22;13825;53.496;10.020;2023-03-01T09:48:02;5.00;1.00
26051;DHT22;13825;53.496;10.020;2023-03-01T09:50:34;5.00;1.00
26051;DHT22;13825;53.496;10.020;2023-03-01T09:53:04;5.30;1.00
26051;DHT22;13825;53.496;10.020;2023-03-01T09:55:38;5.30;1.00
26051;DHT22;13825;53.496;10.020;2023-03-01T09:58:27;5.40;1.00
26051;DHT22;13825;53.496;10.020;2023-03-01T10:00:57;5.40;1.00
26051;DHT22;13825;53.496;10.020;2023-03-01T10:03:29;5.40;1.00
26051;DHT22;13825;53.496;10.020;2023-03-01T10:06:05;5.40;1.00
26051;DHT22;13825;53.496;10.020;2023-03-01T10:08:39;5.50;1.00
26051;DHT22;13825;53.496;10.020;2023-03-01T10:11:19;5.60;1.00
26051;DHT22;13825;53.496;10.020;2023-03-01T10:13:50;5.40;1.00
26051;DHT22;13825;53.496;10.020;2023-03-01T10:16:23;5.80;1.00
26051;DHT22;13825;53.496;10.020;2023-03-01T10:18:54;6.00;1.00
26051;DHT22;13825;53.496;10.020;2023-03-01T10:21:22;6.10;1.00
26051;DHT22;13825;53.496;10.020;2023-03-01T10:23:50;6.20;1.00
26051;DHT22;13825;53.496;10.020;2023-03-01T10:26:37;6.30;1.00
26051;DHT22;13825;53.496;10.020;2023-03-01T10:29:06;6.40;1.00
26051;DHT22;13825;53.496;10.020;2023-03-01T10:31:39;6.20;1.00
26051;DHT22;13825;53.496;10.020;2023-03-01T10:34:11;6.30;1.00
26051;DHT22;13825;53.496;10.020;2023-03-01T10:36:39;6.60;1.00
26051;DHT22;13825;53.496;10.020;2023-03-01T10:39:13;6.60;1.00
26051;DHT22;13825;53.496;10.020;2023-03-01T10:42:00;6.80;1.00
26051;DHT22;13825;53.496;10.020;2023-03-01T10:44:41;7.00;1.00
26051;DHT22;13825;53.496;10.020;2023-03-01T10:47:15;6.80;1.00
26051;DHT22;13825;53.496;10.020;2023-03-01T10:49:58;7.00;1.00
26051;DHT22;13825;53.496;10.020;2023-03-01T10:52:29;7.00;1.00
26051;DHT22;13825;53.496;10.020;2023-03-01T10:54:58;6.90;1.00
26051;DHT22;13825;53.496;10.020;2023-03-01T10:57:32;6.70;1.00
26051;DHT22;13825;53.496;10.020;2023-03-01T11:00:19;6.90;1.00
26051;DHT22;13825;53.496;10.020;2023-03-01T11:02:49;6.90;1.00
26051;DHT22;13825;53.496;10.020;2023-03-01T11:05:22;6.80;1.00
26051;DHT22;13825;53.496;10.020;2023-03-01T11:07:56;6.70;1.00
26051;DHT22;13825;53.496;10.020;2023-03-01T11:10:25;6.50;1.00
26051;DHT22;13825;53.496;10.020;2023-03-01T11:13:06;6.60;1.00
26051;DHT22;13825;53.496;10.020;2023-03-01T11:15:33;6.50;1.00
26051;DHT22;13825;53.496;10.020;2023-03-01T11:18:01;6.20;1.00
26051;DHT22;13825;53.496;10.020;2023-03-01T11:20:32;6.30;1.00
26051;DHT22;13825;53.496;10.020;2023-03-01T11:23:02;6.20;1.00
26051;DHT22;13825;53.496;10.020;2023-03-01T11:25:32;6.40;1.00
26051;DHT22;13825;53.496;10.020;2023-03-01T11:28:04;6.70;1.00
26051;DHT22;13825;53.496;10.020;2023-03-01T11:30:35;6.50;1.00
26051;DHT22;13825;53.496;10.020;2023-03-01T11:33:13;6.70;1.00
26051;DHT22;13825;53.496;10.020;2023-03-01T11:35:45;6.60;1.00
26051;DHT22;13825;53.496;10.020;2023-03-01T11:38:19;6.60;1.00
26051;DHT22;13825;53.496;10.020;2023-03-01T11:40:52;6.90;1.00
26051;DHT22;13825;53.496;10.020;2023-03-01T11:43:26;6.90;1.00
26051;DHT22;13825;53.496;10.020;2023-03-01T11:49:19;7.20;1.00
26051;DHT22;13825;53.496;10.020;2023-03-01T11:51:55;7.40;1.00
26051;DHT22;13825;53.496;10.020;2023-03-01T11:54:35;7.40;1.00
26051;DHT22;13825;53.496;10.020;2023-03-01T11:57:14;7.50;1.00
26051;DHT22;13825;53.496;10.020;2023-03-01T12:00:10;7.50;1.00
26051;DHT22;13825;53.496;10.020;2023-03-01T12:06:22;7.50;1.00
26051;DHT22;13825;53.496;10.020;2023-03-01T12:09:06;7.50;1.00
26051;DHT22;13825;53.496;10.020;2023-03-01T12:11:42;7.90;1.00
26051;DHT22;13825;53.496;10.020;2023-03-01T12:14:34;8.00;1.00
26051;DHT22;13825;53.496;10.020;2023-03-01T12:25:34;7.90;1.00
26051;DHT22;13825;53.496;10.020;2023-03-01T12:28:32;8.00;1.00
26051;DHT22;13825;53.496;10.020;2023-03-01T12:34:55;8.00;1.00
26051;DHT22;13825;53.496;10.020;2023-03-01T12:37:36;7.90;1.00
26051;DHT22;13825;53.496;10.020;2023-03-01T12:40:33;7.90;1.00
26051;DHT22;13825;53.496;10.020;2023-03-01T12:43:47;8.30;1.00
26051;DHT22;13825;53.496;10.020;2023-03-01T12:46:25;8.60;1.00
26051;DHT22;13825;53.496;10.020;2023-03-01T12:49:04;8.50;1.00
26051;DHT22;13825;53.496;10.020;2023-03-01T12:51:38;8.60;1.00
26051;DHT22;13825;53.496;10.020;2023-03-01T12:54:19;8.70;1.00
26051;DHT22;13825;53.496;10.020;2023-03-01T12:56:52;8.90;1.00
26051;DHT22;13825;53.496;10.020;2023-03-01T12:59:25;8.90;1.00
26051;DHT22;13825;53.496;10.020;2023-03-01T13:01:59;9.00;1.00
26051;DHT22;13825;53.496;10.020;2023-03-01T13:04:38;8.90;1.00
26051;DHT22;13825;53.496;10.020;2023-03-01T13:07:28;8.90;1.00
26051;DHT22;13825;53.496;10.020;2023-03-01T13:10:06;8.80;1.00
26051;DHT22;13825;53.496;10.020;2023-03-01T13:12:57;8.80;1.00
26051;DHT22;13825;53.496;10.020;2023-03-01T13:15:29;9.20;1.00
26051;DHT22;13825;53.496;10.020;2023-03-01T13:17:58;9.30;1.00
26051;DHT22;13825;53.496;10.020;2023-03-01T13:20:29;9.30;1.00
26051;DHT22;13825;53.496;10.020;2023-03-01T13:23:13;9.40;99.90
26051;DHT22;13825;53.496;10.020;2023-03-01T13:26:05;9.20;99.90
26051;DHT22;13825;53.496;10.020;2023-03-01T13:28:53;9.50;99.90
26051;DHT22;13825;53.496;10.020;2023-03-01T13:34:51;9.40;99.90
26051;DHT22;13825;53.496;10.020;2023-03-01T13:37:24;9.40;99.90
26051;DHT22;13825;53.496;10.020;2023-03-01T13:39:57;9.40;99.90
26051;DHT22;13825;53.496;10.020;2023-03-01T13:42:38;9.80;99.90
26051;DHT22;13825;53.496;10.020;2023-03-01T13:45:17;9.40;99.90
26051;DHT22;13825;53.496;10.020;2023-03-01T13:47:46;9.20;99.90
26051;DHT22;13825;53.496;10.020;2023-03-01T13:50:19;9.40;99.90
26051;DHT22;13825;53.496;10.020;2023-03-01T13:52:50;9.50;99.90
26051;DHT22;13825;53.496;10.020;2023-03-01T13:55:23;9.70;99.90
26051;DHT22;13825;53.496;10.020;2023-03-01T13:57:53;9.70;99.90
26051;DHT22;13825;53.496;10.020;2023-03-01T14:00:30;9.60;99.90
26051;DHT22;13825;53.496;10.020;2023-03-01T14:05:59;9.70;99.90
26051;DHT22;13825;53.496;10.020;2023-03-01T14:08:28;9.80;99.90
26051;DHT22;13825;53.496;10.020;2023-03-01T14:14:31;9.60;99.90
26051;DHT22;13825;53.496;10.020;2023-03-01T14:20:16;9.70;99.90
26051;DHT22;13825;53.496;10.020;2023-03-01T14:22:45;9.80;99.90
26051;DHT22;13825;53.496;10.020;2023-03-01T14:25:24;9.80;99.90
26051;DHT22;13825;53.496;10.020;2023-03-01T14:27:59;9.90;99.90
26051;DHT22;13825;53.496;10.020;2023-03-01T14:30:31;9.80;99.90
26051;DHT22;13825;53.496;10.020;2023-03-01T14:33:02;10.00;99.90
26051;DHT22;13825;53.496;10.020;2023-03-01T14:35:32;9.90;99.90
26051;DHT22;13825;53.496;10.020;2023-03-01T14:38:00;10.00;99.90
26051;DHT22;13825;53.496;10.020;2023-03-01T14:40:28;9.80;99.90
26051;DHT22;13825;53.496;10.020;2023-03-01T14:43:00;9.80;99.90
26051;DHT22;13825;53.496;10.020;2023-03-01T14:45:29;10.00;99.90
26051;DHT22;13825;53.496;10.020;2023-03-01T14:48:00;9.80;99.90
26051;DHT22;13825;53.496;10.020;2023-03-01T14:50:29;9.90;99.90
26051;DHT22;13825;53.496;10.020;2023-03-01T14:52:59;10.00;99.90
26051;DHT22;13825;53.496;10.020;2023-03-01T14:55:30;10.10;99.90
26051;DHT22;13825;53.496;10.020;2023-03-01T14:57:59;10.20;99.90
26051;DHT22;13825;53.496;10.020;2023-03-01T15:00:30;10.30;99.90
26051;DHT22;13825;53.496;10.020;2023-03-01T15:03:06;10.00;99.90
26051;DHT22;13825;53.496;10.020;2023-03-01T15:05:40;9.90;99.90
26051;DHT22;13825;53.496;10.020;2023-03-01T15:08:20;10.00;99.90
26051;DHT22;13825;53.496;10.020;2023-03-01T15:11:00;10.40;99.90
26051;DHT22;13825;53.496;10.020;2023-03-01T15:13:36;10.40;99.90
26051;DHT22;13825;53.496;10.020;2023-03-01T15:16:09;10.30;99.90
26051;DHT22;13825;53.496;10.020;2023-03-01T15:55:15;11.00;99.90
26051;DHT22;13825;53.496;10.020;2023-03-01T15:57:49;11.20;99.90
26051;DHT22;13825;53.496;10.020;2023-03-01T16:00:17;11.10;99.90
26051;DHT22;13825;53.496;10.020;2023-03-01T16:02:54;10.80;99.90
26051;DHT22;13825;53.496;10.020;2023-03-01T16:05:40;10.60;99.90
26051;DHT22;13825;53.496;10.020;2023-03-01T16:08:20;10.50;99.90
26051;DHT22;13825;53.496;10.020;2023-03-01T16:11:04;10.60;99.90
26051;DHT22;13825;53.496;10.020;2023-03-01T16:13:31;10.10;99.90
26051;DHT22;13825;53.496;10.020;2023-03-01T16:16:00;10.00;99.90
26051;DHT22;13825;53.496;10.020;2023-03-01T16:18:46;9.60;99.90
26051;DHT22;13825;53.496;10.020;2023-03-01T16:21:20;9.50;99.90
26051;DHT22;13825;53.496;10.020;2023-03-01T16:24:02;9.30;99.90
26051;DHT22;13825;53.496;10.020;2023-03-01T16:26:30;8.90;99.90
26051;DHT22;13825;53.496;10.020;2023-03-01T16:32:32;8.30;99.90
26051;DHT22;13825;53.496;10.020;2023-03-01T16:35:05;8.20;99.90
26051;DHT22;13825;53.496;10.020;2023-03-01T16:37:36;7.90;99.90
26051;DHT22;13825;53.496;10.020;2023-03-01T16:40:16;7.60;99.90
26051;DHT22;13825;53.496;10.020;2023-03-01T16:42:44;7.30;99.90
26051;DHT22;13825;53.496;10.020;2023-03-01T16:45:11;6.90;99.90
26051;DHT22;13825;53.496;10.020;2023-03-01T16:47:38;6.90;99.90
26051;DHT22;13825;53.496;10.020;2023-03-01T16:50:05;6.70;99.90
26051;DHT22;13825;53.496;10.020;2023-03-01T16:52:33;6.50;1.00
26051;DHT22;13825;53.496;10.020;2023-03-01T16:55:01;6.30;1.00
26051;DHT22;13825;53.496;10.020;2023-03-01T16:57:29;6.20;1.00
26051;DHT22;13825;53.496;10.020;2023-03-01T16:59:57;6.10;1.00
26051;DHT22;13825;53.496;10.020;2023-03-01T17:02:24;5.90;1.00
26051;DHT22;13825;53.496;10.020;2023-03-01T17:04:52;6.00;1.00
26051;DHT22;13825;53.496;10.020;2023-03-01T17:07:19;5.70;1.00
26051;DHT22;13825;53.496;10.020;2023-03-01T17:09:47;5.50;1.00
26051;DHT22;13825;53.496;10.020;2023-03-01T17:12:14;5.40;1.00
26051;DHT22;13825;53.496;10.020;2023-03-01T17:14:42;5.30;1.00
26051;DHT22;13825;53.496;10.020;2023-03-01T17:17:11;5.20;1.00